Time;durP1;ratioP1;P1;durP2;ratioP2;P2;SDS_P1;SDS_P2;PMS_P1;PMS_P2;Temp;Humidity;BMP_temperature;BMP_pressure;BME280_temperature;BME280_humidity;BME280_pressure;Samples;Min_cycle;Max_cycle;Signal;HPM_P1;HPM_P2
2023/01/03 00:01:15;;;;;;;61.53;55.42;;;;;;;1.15;100.00;102069.16;5062681;28;20060;-80
2023/01/03 00:03:43;;;;;;;63.03;56.97;;;;;;;0.91;100.00;102064.72;5062302;28;20125;-82
2023/01/03 00:06:15;;;;;;;60.17;54.00;;;;;;;0.73;100.00;102060.81;5054806;28;20082;-79
2023/01/03 00:08:42;;;;;;;72.20;64.25;;;;;;;0.66;100.00;102062.19;5064798;28;20140;-82
2023/01/03 00:11:11;;;;;;;85.53;73.35;;;;;;;0.56;100.00;102067.22;5062269;28;20523;-82
2023/01/03 00:13:37;;;;;;;120.28;88.22;;;;;;;0.36;100.00;102054.69;5070660;28;20040;-79
2023/01/03 00:16:04;;;;;;;106.30;83.78;;;;;;;0.44;100.00;102060.25;5059793;28;20103;-82
2023/01/03 00:18:33;;;;;;;100.47;81.70;;;;;;;0.37;100.00;102064.22;5060065;28;20045;-82
2023/01/03 00:21:03;;;;;;;113.40;81.88;;;;;;;0.39;100.00;102057.09;5058317;28;20104;-83
2023/01/03 00:23:30;;;;;;;114.78;84.90;;;;;;;0.36;100.00;102059.94;5064529;28;20182;-79
2023/01/03 00:25:57;;;;;;;124.20;86.50;;;;;;;0.35;100.00;102053.03;5070460;28;20044;-78
2023/01/03 00:28:24;;;;;;;174.25;119.20;;;;;;;0.32;100.00;102058.47;5063397;28;20121;-81
2023/01/03 00:30:50;;;;;;;175.20;116.93;;;;;;;0.22;100.00;102056.50;5062443;28;20052;-82
2023/01/03 00:33:17;;;;;;;161.45;111.75;;;;;;;0.40;100.00;102062.25;5059734;28;20554;-79
2023/01/03 00:35:45;;;;;;;172.77;111.10;;;;;;;0.17;100.00;102042.91;5062745;28;20063;-82
2023/01/03 00:38:12;;;;;;;175.13;109.05;;;;;;;0.27;100.00;102055.34;5053837;28;20174;-78
2023/01/03 00:40:39;;;;;;;146.88;104.57;;;;;;;0.35;100.00;102064.31;5070628;28;20451;-83
2023/01/03 00:45:49;;;;;;;145.65;105.63;;;;;;;0.28;100.00;102059.66;5054249;28;20067;-79
2023/01/03 00:48:16;;;;;;;151.02;109.30;;;;;;;0.17;100.00;102060.38;5062114;28;20130;-79
2023/01/03 00:50:43;;;;;;;155.40;108.50;;;;;;;0.16;100.00;102056.94;5063244;28;20474;-81
2023/01/03 00:53:11;;;;;;;96.65;77.35;;;;;;;0.25;100.00;102054.63;5061154;28;20048;-78
2023/01/03 00:55:37;;;;;;;89.47;70.65;;;;;;;0.26;100.00;102049.28;5060430;28;20496;-78
2023/01/03 00:58:04;;;;;;;80.57;68.78;;;;;;;0.22;100.00;102037.38;5070362;28;20044;-80
2023/01/03 01:00:31;;;;;;;85.70;71.47;;;;;;;0.23;100.00;102039.88;5072652;22;20053;-91
2023/01/03 01:02:58;;;;;;;84.63;72.82;;;;;;;0.25;100.00;102036.34;5033074;28;20045;-91
2023/01/03 01:05:28;;;;;;;88.35;71.78;;;;;;;0.40;100.00;102043.94;5032923;28;20053;-91
2023/01/03 01:07:55;;;;;;;99.90;77.95;;;;;;;0.26;100.00;102032.78;5032071;28;20099;-91
2023/01/03 01:10:24;;;;;;;101.53;80.20;;;;;;;0.28;100.00;102039.56;5037075;28;20414;-91
2023/01/03 01:12:55;;;;;;;101.70;77.53;;;;;;;0.29;100.00;102035.16;5019577;28;20050;-91
2023/01/03 01:15:22;;;;;;;85.68;71.75;;;;;;;0.25;100.00;102028.50;5035108;28;20042;-91
2023/01/03 01:17:51;;;;;;;93.70;75.88;;;;;;;0.19;100.00;102027.13;5032403;28;20049;-91
2023/01/03 01:20:18;;;;;;;100.78;75.22;;;;;;;0.32;100.00;102027.94;5036143;28;20179;-91
2023/01/03 01:22:45;;;;;;;75.60;60.97;;;;;;;0.31;100.00;102039.34;5036715;28;20053;-92
2023/01/03 01:25:12;;;;;;;80.32;64.30;;;;;;;0.34;100.00;102035.69;5017733;28;20049;-91
2023/01/03 01:27:40;;;;;;;83.63;65.57;;;;;;;0.18;100.00;102033.28;5036203;28;20453;-90
2023/01/03 01:30:08;;;;;;;69.72;58.83;;;;;;;0.17;100.00;102026.41;5036678;28;20049;-91
2023/01/03 01:32:37;;;;;;;85.03;67.18;;;;;;;-0.02;100.00;102019.84;5036137;28;20061;-91
2023/01/03 01:35:05;;;;;;;88.13;73.10;;;;;;;0.01;100.00;102023.19;5036479;28;20119;-91
2023/01/03 01:40:12;;;;;;;86.47;66.68;;;;;;;-0.04;100.00;102016.47;5145912;27;20390;-78
2023/01/03 01:45:23;;;;;;;68.90;61.40;;;;;;;0.44;100.00;102016.63;5141102;27;20049;-79
2023/01/03 01:47:53;;;;;;;69.93;61.88;;;;;;;0.71;100.00;102022.63;5138593;27;20043;-81
2023/01/03 01:50:25;;;;;;;62.50;56.10;;;;;;;0.60;100.00;102020.78;5138839;27;20040;-80
2023/01/03 01:52:57;;;;;;;59.65;53.03;;;;;;;0.35;100.00;102017.28;5139623;27;20461;-78
2023/01/03 01:55:27;;;;;;;61.95;55.67;;;;;;;0.59;100.00;102016.50;5145411;27;20050;-81
2023/01/03 01:57:55;;;;;;;54.97;49.63;;;;;;;0.49;100.00;102015.50;5115502;27;20055;-78
2023/01/03 02:00:22;;;;;;;61.35;54.97;;;;;;;0.38;100.00;102011.00;5145026;27;20083;-82
2023/01/03 02:02:52;;;;;;;65.07;58.50;;;;;;;0.29;100.00;102011.66;5140704;27;20058;-79
2023/01/03 02:05:20;;;;;;;77.10;63.53;;;;;;;0.18;100.00;102008.03;5139061;27;20468;-82
2023/01/03 02:07:49;;;;;;;73.10;65.15;;;;;;;-0.03;100.00;102005.13;5145055;27;20459;-79
2023/01/03 02:10:17;;;;;;;117.05;82.75;;;;;;;-0.08;100.00;102004.59;5137246;27;20051;-79
2023/01/03 02:13:07;;;;;;;118.00;83.07;;;;;;;-0.15;100.00;102002.47;5113450;27;20495;-78
2023/01/03 02:16:12;;;;;;;127.20;91.90;;;;;;;-0.29;100.00;101998.22;5141220;27;20043;-78
2023/01/03 02:18:51;;;;;;;134.63;96.43;;;;;;;-0.26;100.00;102004.06;5140834;27;20051;-78
2023/01/03 02:21:53;;;;;;;134.32;94.32;;;;;;;-0.34;100.00;101995.06;5139442;27;20051;-82
2023/01/03 02:24:54;;;;;;;114.18;84.22;;;;;;;-0.26;100.00;101992.78;5137442;27;20103;-81
2023/01/03 02:27:54;;;;;;;84.75;70.53;;;;;;;-0.25;100.00;102002.28;5138490;27;20044;-78
2023/01/03 02:30:34;;;;;;;91.60;71.30;;;;;;;-0.22;100.00;101999.47;5144356;27;20046;-79
2023/01/03 02:33:10;;;;;;;110.15;80.18;;;;;;;-0.34;100.00;101993.28;5130296;27;20056;-79
2023/01/03 02:35:41;;;;;;;95.38;74.10;;;;;;;-0.30;100.00;101994.78;5130926;27;20056;-82
2023/01/03 02:38:15;;;;;;;87.43;70.70;;;;;;;-0.18;100.00;101993.09;5135331;27;20087;-83
2023/01/03 02:40:48;;;;;;;73.35;62.08;;;;;;;-0.23;100.00;101995.19;5138369;27;20043;-83
2023/01/03 02:43:21;;;;;;;86.28;72.18;;;;;;;-0.30;100.00;101992.16;5117844;27;20418;-79
2023/01/03 02:46:01;;;;;;;78.45;67.93;;;;;;;-0.18;100.00;101994.84;5141153;27;20058;-82
2023/01/03 02:48:43;;;;;;;77.70;66.60;;;;;;;-0.23;100.00;101995.19;5145158;27;20047;-86
2023/01/03 02:51:17;;;;;;;66.00;59.08;;;;;;;-0.08;100.00;101988.91;5126432;27;20050;-82
2023/01/03 02:53:47;;;;;;;68.50;59.50;;;;;;;-0.28;100.00;101992.88;5122694;27;20043;-81
2023/01/03 02:56:19;;;;;;;64.88;58.30;;;;;;;-0.21;100.00;101993.31;5120708;27;20047;-80
2023/01/03 02:58:51;;;;;;;60.90;54.72;;;;;;;-0.13;100.00;101990.16;5122210;27;20051;-82
2023/01/03 03:01:20;;;;;;;;;;;;;;;-0.31;100.00;101985.25;5117945;27;20047;-82
2023/01/03 03:03:47;;;;;;;65.88;59.03;;;;;;;-0.36;100.00;101991.75;5124239;27;19972;-78
2023/01/03 03:06:22;;;;;;;74.30;66.32;;;;;;;-0.32;100.00;101994.03;5124506;27;20058;-79
2023/01/03 03:08:50;;;;;;;68.82;61.25;;;;;;;-0.43;100.00;101985.25;5127663;27;20046;-79
2023/01/03 03:14:07;;;;;;;66.63;59.50;;;;;;;-0.46;100.00;101978.44;5121812;27;20046;-81
2023/01/03 03:16:49;;;;;;;68.80;61.55;;;;;;;-0.43;100.00;101993.06;5124865;27;20433;-79
2023/01/03 03:25:07;;;;;;;69.88;61.85;;;;;;;0.13;100.00;101991.00;5117212;27;20403;-82
2023/01/03 03:30:25;;;;;;;63.40;56.70;;;;;;;-0.04;100.00;101992.97;5127949;27;20055;-79
2023/01/03 03:32:55;;;;;;;64.03;57.10;;;;;;;-0.17;100.00;101986.09;5122969;27;20085;-80
2023/01/03 03:35:24;;;;;;;64.50;57.15;;;;;;;-0.17;100.00;101994.75;5129583;27;20457;-79
2023/01/03 03:37:55;;;;;;;67.20;58.65;;;;;;;-0.04;100.00;101989.53;5117186;27;20471;-79
2023/01/03 03:46:05;;;;;;;63.13;56.63;;;;;;;-0.03;100.00;101999.88;5125956;27;20043;-79
2023/01/03 03:51:25;;;;;;;65.25;58.42;;;;;;;0.33;100.00;101995.63;5126721;27;20043;-82
2023/01/03 03:53:54;;;;;;;64.85;58.38;;;;;;;0.18;100.00;101987.13;5123052;27;20047;-82
2023/01/03 03:56:30;;;;;;;61.65;55.08;;;;;;;0.18;100.00;101989.72;5120393;27;20603;-79
2023/01/03 03:59:02;;;;;;;60.33;54.03;;;;;;;0.00;100.00;101988.41;5113793;27;20044;-81
2023/01/03 04:01:30;;;;;;;62.97;56.53;;;;;;;-0.08;100.00;101994.13;5124563;27;20054;-83
2023/01/03 04:04:05;;;;;;;63.05;56.90;;;;;;;0.03;100.00;101993.41;5127618;27;20115;-82
2023/01/03 04:06:36;;;;;;;64.60;58.17;;;;;;;0.17;100.00;101985.41;5114464;27;20395;-81
2023/01/03 04:09:03;;;;;;;62.47;56.43;;;;;;;0.37;100.00;101998.88;5125738;27;20560;-83
2023/01/03 04:11:30;;;;;;;61.90;55.45;;;;;;;0.10;100.00;102001.66;5126734;27;20429;-81
2023/01/03 04:13:57;;;;;;;66.78;60.45;;;;;;;0.14;100.00;101995.25;5120628;27;20046;-82
2023/01/03 04:16:24;;;;;;;65.00;58.33;;;;;;;0.11;100.00;102000.69;5121354;27;20108;-77
2023/01/03 04:18:51;;;;;;;61.53;55.63;;;;;;;0.29;100.00;101998.59;5127382;27;20051;-81
2023/01/03 04:21:19;;;;;;;60.85;54.88;;;;;;;0.16;100.00;101996.81;5123343;27;20548;-81
2023/01/03 04:23:46;;;;;;;60.22;54.30;;;;;;;0.13;100.00;101996.22;5117794;27;20056;-78
2023/01/03 04:26:12;;;;;;;71.30;64.63;;;;;;;-0.05;100.00;101995.69;5107875;27;20059;-80
2023/01/03 04:28:39;;;;;;;59.55;53.45;;;;;;;-0.10;100.00;102003.84;5122535;27;20039;-82
2023/01/03 04:31:06;;;;;;;60.97;54.72;;;;;;;-0.14;100.00;101996.34;5125087;27;20452;-78
2023/01/03 04:33:32;;;;;;;62.15;56.00;;;;;;;-0.26;100.00;102004.06;5124464;27;20063;-82
2023/01/03 04:35:59;;;;;;;61.75;55.53;;;;;;;-0.37;100.00;101995.28;5128069;27;20047;-78
2023/01/03 04:41:09;;;;;;;62.28;56.08;;;;;;;-0.32;100.00;101996.63;5112432;27;20377;-79
2023/01/03 04:46:20;;;;;;;62.17;56.08;;;;;;;-0.58;100.00;102016.66;5074642;28;20531;-83
2023/01/03 04:48:47;;;;;;;60.20;54.00;;;;;;;-0.56;100.00;102009.56;5069556;28;20406;-82
2023/01/03 04:51:14;;;;;;;60.10;54.03;;;;;;;-0.43;100.00;102012.19;4989119;28;20382;-82
2023/01/03 04:53:41;;;;;;;63.13;56.92;;;;;;;-0.38;100.00;102017.09;5025403;28;20644;-79
2023/01/03 04:56:09;;;;;;;60.85;54.72;;;;;;;-0.13;100.00;102008.44;5020937;28;20053;-79
2023/01/03 04:58:36;;;;;;;60.97;54.35;;;;;;;-0.30;100.00;102010.44;5027901;28;20045;-80
2023/01/03 05:01:06;;;;;;;61.90;55.95;;;;;;;-0.09;100.00;102015.13;5018567;28;20084;-79
2023/01/03 05:03:33;;;;;;;62.67;56.55;;;;;;;-0.02;100.00;102025.06;5032883;28;20429;-80
2023/01/03 05:06:01;;;;;;;61.80;55.40;;;;;;;0.28;100.00;102016.03;5038902;28;20524;-80
2023/01/03 05:08:27;;;;;;;59.22;53.15;;;;;;;0.25;100.00;102011.03;5041041;28;20049;-79
2023/01/03 05:10:54;;;;;;;61.92;55.63;;;;;;;0.13;100.00;102017.13;5039459;28;20379;-82
2023/01/03 05:13:23;;;;;;;68.18;60.50;;;;;;;0.36;100.00;102016.31;5029691;28;20401;-79
2023/01/03 05:15:50;;;;;;;69.28;61.83;;;;;;;0.57;100.00;102006.13;5025069;28;20050;-82
2023/01/03 05:18:17;;;;;;;67.80;60.65;;;;;;;0.37;100.00;102010.19;5026322;28;20042;-82
2023/01/03 05:26:15;;;;;;;65.65;58.33;;;;;;;0.53;100.00;102020.38;5024488;28;20501;-79
2023/01/03 05:28:46;;;;;;;63.67;57.17;;;;;;;0.60;100.00;102024.22;5023450;28;20462;-83
2023/01/03 05:31:13;;;;;;;61.75;55.63;;;;;;;0.23;100.00;102028.59;5019052;28;20049;-81
2023/01/03 05:33:41;;;;;;;62.00;55.28;;;;;;;0.14;100.00;102027.44;5030799;28;20185;-78
2023/01/03 05:36:09;;;;;;;60.85;54.45;;;;;;;0.06;100.00;102023.69;5019801;28;20108;-79
2023/01/03 05:38:36;;;;;;;57.55;51.88;;;;;;;-0.10;100.00;102026.50;5023550;28;20050;-78
2023/01/03 05:41:04;;;;;;;59.33;53.28;;;;;;;-0.14;100.00;102022.44;5014896;28;20124;-79
2023/01/03 05:43:31;;;;;;;55.78;50.95;;;;;;;-0.03;100.00;102027.75;5028616;28;20045;-78
2023/01/03 05:46:07;;;;;;;51.88;46.92;;;;;;;0.01;100.00;102016.19;5027100;28;20054;-81
2023/01/03 05:48:35;;;;;;;53.55;48.40;;;;;;;0.17;100.00;102023.78;5016927;28;20056;-82
2023/01/03 05:51:04;;;;;;;54.42;48.42;;;;;;;0.07;100.00;102020.97;5021389;28;20111;-79
2023/01/03 05:53:30;;;;;;;55.90;50.50;;;;;;;0.08;100.00;102021.81;5015257;28;20049;-82
2023/01/03 05:55:57;;;;;;;57.10;52.00;;;;;;;0.05;100.00;102019.41;5007647;28;20046;-79
2023/01/03 05:58:24;;;;;;;54.58;49.33;;;;;;;-0.21;100.00;102029.00;5009793;28;20038;-82
2023/01/03 06:00:50;;;;;;;53.13;48.53;;;;;;;-0.14;100.00;102032.91;5011947;28;20446;-81
2023/01/03 06:03:19;;;;;;;51.70;46.80;;;;;;;-0.26;100.00;102030.16;5006762;28;20112;-81
2023/01/03 06:05:45;;;;;;;58.50;52.75;;;;;;;-0.14;100.00;102030.28;5010335;28;20041;-78
2023/01/03 06:08:12;;;;;;;56.20;51.03;;;;;;;-0.19;100.00;102030.59;5006767;28;20058;-79
2023/01/03 06:10:40;;;;;;;54.80;49.50;;;;;;;-0.09;100.00;102036.88;5013628;28;20196;-79
2023/01/03 06:13:07;;;;;;;57.20;51.35;;;;;;;0.35;100.00;102040.81;5010857;28;20142;-81
2023/01/03 06:15:34;;;;;;;59.78;53.10;;;;;;;0.49;100.00;102036.41;5009194;28;20047;-81
2023/01/03 06:18:01;;;;;;;60.10;54.20;;;;;;;0.78;100.00;102040.38;5013179;28;20356;-77
2023/01/03 06:20:30;;;;;;;62.50;55.83;;;;;;;1.39;100.00;102035.06;5006690;28;20088;-82
2023/01/03 06:22:57;;;;;;;62.40;55.92;;;;;;;1.90;100.00;102036.50;5009088;28;20127;-81
2023/01/03 06:25:24;;;;;;;58.65;52.72;;;;;;;2.04;100.00;102029.28;5011947;28;20054;-82
2023/01/03 06:27:51;;;;;;;56.65;51.28;;;;;;;2.59;100.00;102047.72;5004199;28;20060;-78
2023/01/03 06:30:19;;;;;;;61.10;55.00;;;;;;;2.38;100.00;102041.53;5011634;28;20499;-81
2023/01/03 06:32:46;;;;;;;60.55;55.05;;;;;;;2.25;100.00;102037.25;5007417;28;20119;-78
2023/01/03 06:35:13;;;;;;;57.67;52.28;;;;;;;3.20;100.00;102049.84;5006436;28;20132;-77
2023/01/03 06:37:41;;;;;;;57.63;52.28;;;;;;;3.48;100.00;102043.19;5009533;28;20054;-82
2023/01/03 06:40:09;;;;;;;56.85;51.67;;;;;;;3.73;100.00;102038.50;4969563;28;20097;-79
2023/01/03 06:42:42;;;;;;;58.38;53.33;;;;;;;3.55;100.00;102046.94;4993899;28;20478;-82
2023/01/03 06:53:35;;;;;;;72.38;61.72;;;;;;;5.39;100.00;102059.91;4989321;28;20058;-82
2023/01/03 06:56:02;;;;;;;89.27;65.53;;;;;;;5.54;100.00;102047.16;4974762;28;20064;-78
2023/01/03 06:58:30;;;;;;;66.38;59.42;;;;;;;6.14;100.00;102054.81;4975326;28;20113;-78
2023/01/03 07:00:58;;;;;;;70.57;61.15;;;;;;;5.60;100.00;102051.00;4984771;28;20050;-79
2023/01/03 07:03:25;;;;;;;63.80;57.17;;;;;;;5.92;100.00;102046.22;4985951;28;20042;-79
2023/01/03 07:05:51;;;;;;;62.70;56.65;;;;;;;6.18;100.00;102043.84;5003484;28;20050;-82
2023/01/03 07:08:18;;;;;;;60.22;54.58;;;;;;;6.49;100.00;102045.38;5005868;28;20050;-79
2023/01/03 07:10:46;;;;;;;58.58;53.20;;;;;;;6.16;100.00;102048.41;5002722;28;20466;-82
2023/01/03 07:15:57;;;;;;;57.97;53.22;;;;;;;7.36;100.00;102054.53;5005734;28;20057;-82
2023/01/03 07:18:25;;;;;;;57.10;52.35;;;;;;;7.92;100.00;102043.53;5008349;28;20050;-80
2023/01/03 07:20:52;;;;;;;57.17;52.67;;;;;;;8.19;100.00;102036.41;5004249;28;20057;-83
2023/01/03 07:23:19;;;;;;;61.20;56.15;;;;;;;8.14;100.00;102046.63;5003984;28;20494;-83
2023/01/03 07:25:47;;;;;;;59.33;54.45;;;;;;;8.50;100.00;102042.03;4997027;28;20057;-80
2023/01/03 07:28:16;;;;;;;59.50;54.65;;;;;;;8.71;100.00;102046.88;4999656;28;20042;-82
2023/01/03 07:30:45;;;;;;;57.75;53.30;;;;;;;9.13;100.00;102051.28;5004612;28;20050;-85
2023/01/03 07:33:14;;;;;;;57.38;52.88;;;;;;;9.53;100.00;102053.16;5005503;28;20061;-82
2023/01/03 07:35:41;;;;;;;57.92;52.88;;;;;;;9.39;100.00;102051.97;5009987;28;20085;-79
2023/01/03 07:38:09;;;;;;;53.67;49.50;;;;;;;9.79;100.00;102052.13;5006227;28;20054;-83
2023/01/03 07:40:37;;;;;;;56.65;52.38;;;;;;;9.21;100.00;102040.72;5000917;28;20050;-83
2023/01/03 07:45:49;;;;;;;58.58;54.20;;;;;;;8.88;100.00;102058.38;5004172;28;20048;-79
2023/01/03 07:48:16;;;;;;;58.53;54.30;;;;;;;9.45;100.00;102054.97;5008253;28;20046;-80
2023/01/03 07:50:43;;;;;;;59.88;55.30;;;;;;;10.65;100.00;102056.72;5001926;28;20552;-80
2023/01/03 07:53:15;;;;;;;56.03;51.65;;;;;;;11.04;100.00;102047.00;5006356;28;20054;-83
2023/01/03 07:55:44;;;;;;;57.88;53.70;;;;;;;11.26;100.00;102059.50;5004796;28;20057;-80
2023/01/03 07:58:12;;;;;;;56.05;51.85;;;;;;;11.73;100.00;102047.78;4995323;28;20074;-80
2023/01/03 08:00:39;;;;;;;56.95;52.88;;;;;;;11.70;100.00;102053.44;5002941;28;20588;-80
2023/01/03 08:03:06;;;;;;;54.53;50.53;;;;;;;11.06;100.00;102045.81;5004236;28;20073;-81
2023/01/03 08:05:34;;;;;;;56.33;52.15;;;;;;;12.34;100.00;102045.81;4998969;28;20116;-79
2023/01/03 08:08:02;;;;;;;55.53;51.63;;;;;;;11.90;100.00;102043.97;5005365;28;20133;-83
2023/01/03 08:13:18;;;;;;;57.97;53.78;;;;;;;12.60;100.00;102033.84;4996250;28;20393;-84
2023/01/03 08:15:46;;;;;;;60.90;56.15;;;;;;;11.85;100.00;102040.19;5004474;28;20041;-82
2023/01/03 08:18:14;;;;;;;56.78;52.80;;;;;;;11.98;100.00;102045.75;5007786;28;20491;-80
2023/01/03 08:20:41;;;;;;;58.47;54.00;;;;;;;11.97;100.00;102040.59;4993289;28;20082;-79
2023/01/03 08:23:08;;;;;;;56.38;52.15;;;;;;;13.30;100.00;102045.66;5007915;28;20052;-83
2023/01/03 08:25:35;;;;;;;55.80;51.80;;;;;;;13.61;100.00;102047.16;4994742;28;20054;-83
2023/01/03 08:28:04;;;;;;;53.95;49.78;;;;;;;13.74;100.00;102047.25;5004137;28;20128;-80
2023/01/03 08:30:35;;;;;;;54.90;50.90;;;;;;;13.71;100.00;102051.13;4994068;28;20049;-84
2023/01/03 08:33:03;;;;;;;57.15;52.65;;;;;;;13.84;100.00;102046.91;5006991;28;20053;-80
2023/01/03 08:35:34;;;;;;;59.80;55.10;;;;;;;14.03;100.00;102042.72;4998212;28;20565;-83
2023/01/03 08:38:02;;;;;;;54.25;50.35;;;;;;;14.00;100.00;102043.09;5011861;28;20050;-82
2023/01/03 08:40:31;;;;;;;54.67;50.80;;;;;;;15.75;100.00;102043.19;5003096;28;20089;-83
2023/01/03 08:42:58;;;;;;;53.50;49.80;;;;;;;15.57;100.00;102042.97;4996334;28;20057;-83
2023/01/03 08:45:26;;;;;;;55.88;51.78;;;;;;;15.80;100.00;102047.94;5002320;28;20051;-83
2023/01/03 08:47:57;;;;;;;56.25;52.35;;;;;;;15.51;100.00;102041.09;5007712;28;20570;-84
2023/01/03 08:50:25;;;;;;;58.05;54.03;;;;;;;15.65;100.00;102039.25;5004105;28;20053;-80
2023/01/03 08:52:52;;;;;;;55.53;51.45;;;;;;;15.96;100.00;102031.41;5004583;28;20161;-81
2023/01/03 08:55:18;;;;;;;53.90;50.28;;;;;;;15.79;100.00;102028.34;5003340;28;20380;-80
2023/01/03 08:57:46;;;;;;;61.20;56.85;;;;;;;17.00;100.00;102020.66;4995164;28;20142;-81
2023/01/03 09:00:14;;;;;;;55.92;51.88;;;;;;;17.00;100.00;102015.28;5005031;28;20069;-80
2023/01/03 09:02:41;;;;;;;54.30;50.30;;;;;;;17.28;100.00;102017.56;5000682;28;20122;-83
2023/01/03 09:05:10;;;;;;;56.15;51.97;;;;;;;17.73;100.00;102017.34;5010917;28;20050;-84
2023/01/03 09:10:16;;;;;;;58.33;54.25;;;;;;;18.07;100.00;101991.81;5083940;27;20402;-83
2023/01/03 09:12:43;;;;;;;58.95;54.75;;;;;;;18.22;100.00;101997.63;5070176;28;20048;-83
2023/01/03 09:15:10;;;;;;;57.38;53.25;;;;;;;18.33;100.00;101995.19;5069998;28;20465;-79
2023/01/03 09:17:41;;;;;;;58.70;54.50;;;;;;;18.66;100.00;101989.38;5069627;28;20056;-80
2023/01/03 09:20:09;;;;;;;59.60;55.50;;;;;;;19.25;97.49;101989.53;5069633;28;20055;-81
2023/01/03 09:22:35;;;;;;;58.30;54.20;;;;;;;19.33;100.00;101978.41;5069816;28;20401;-80
2023/01/03 09:25:02;;;;;;;56.50;52.65;;;;;;;18.98;94.80;101985.41;5069982;28;20122;-80
2023/01/03 09:27:30;;;;;;;57.00;53.00;;;;;;;17.54;100.00;101977.03;5069456;28;20134;-81
2023/01/03 09:29:57;;;;;;;56.95;53.17;;;;;;;17.23;87.25;101977.94;5069625;28;20053;-82
2023/01/03 09:32:24;;;;;;;57.50;53.55;;;;;;;19.33;100.00;101979.22;5069372;28;20118;-83
2023/01/03 09:34:51;;;;;;;58.22;54.33;;;;;;;17.05;100.00;101972.50;5069216;28;20049;-82
2023/01/03 09:37:17;;;;;;;56.17;52.58;;;;;;;16.81;100.00;101977.63;5069559;28;20056;-83
2023/01/03 09:39:44;;;;;;;54.80;51.10;;;;;;;15.54;100.00;101976.44;5069378;28;20117;-83
2023/01/03 09:45:03;;;;;;;55.83;52.13;;;;;;;16.23;100.00;101961.63;5068157;28;20166;-80
2023/01/03 09:47:35;;;;;;;54.30;50.65;;;;;;;15.14;100.00;101962.25;5069398;28;20052;-82
2023/01/03 09:50:02;;;;;;;55.57;51.77;;;;;;;15.93;100.00;101947.94;5068646;28;20386;-82
2023/01/03 10:04:04;;;;;;;65.93;60.70;;;;;;;18.15;100.00;101937.72;5060486;28;20052;-81
2023/01/03 10:06:42;;;;;;;120.75;89.60;;;;;;;18.02;100.00;101941.38;5060487;28;20048;-83
2023/01/03 10:09:25;;;;;;;61.42;56.10;;;;;;;19.18;95.69;101938.47;5059978;28;20044;-81
2023/01/03 10:12:07;;;;;;;56.42;52.33;;;;;;;15.62;100.00;101946.75;5058294;28;20201;-82
2023/01/03 10:14:45;;;;;;;59.50;54.60;;;;;;;17.46;100.00;101931.69;5064206;28;20044;-80
2023/01/03 10:17:22;;;;;;;58.40;54.40;;;;;;;17.33;100.00;101931.78;5066967;28;20149;-81
2023/01/03 10:20:14;;;;;;;58.20;54.03;;;;;;;18.46;100.00;101922.41;5061828;28;20444;-85
2023/01/03 10:22:41;;;;;;;57.55;53.53;;;;;;;18.41;80.25;101922.28;5053613;28;20045;-83
2023/01/03 10:25:12;;;;;;;56.75;53.15;;;;;;;18.58;100.00;101915.19;5055663;28;20114;-80
2023/01/03 10:27:45;;;;;;;61.17;56.95;;;;;;;17.00;91.66;101915.97;5048078;28;20045;-80
2023/01/03 10:30:17;;;;;;;59.90;56.00;;;;;;;17.95;100.00;101919.16;5055132;28;20064;-83
2023/01/03 10:33:09;;;;;;;60.22;56.22;;;;;;;17.22;100.00;101919.09;5053136;28;20383;-82
2023/01/03 10:35:36;;;;;;;59.70;55.78;;;;;;;16.95;100.00;101916.66;5050398;28;20053;-83
2023/01/03 10:38:03;;;;;;;62.65;58.55;;;;;;;17.54;100.00;101904.50;5052865;28;20045;-84
2023/01/03 10:40:36;;;;;;;61.00;57.10;;;;;;;18.05;91.75;101905.19;5046221;28;20774;-79
2023/01/03 10:43:15;;;;;;;60.20;56.25;;;;;;;19.12;91.28;101907.94;5041211;28;20051;-83
2023/01/03 10:45:53;;;;;;;61.13;56.97;;;;;;;17.55;100.00;101898.09;5049240;28;20057;-84
2023/01/03 10:48:21;;;;;;;59.22;55.17;;;;;;;18.59;94.07;101898.00;5046400;28;20052;-83
2023/01/03 10:50:49;;;;;;;58.78;54.92;;;;;;;16.06;100.00;101905.00;5052302;28;20045;-81
2023/01/03 10:53:19;;;;;;;59.05;55.17;;;;;;;17.05;100.00;101892.81;5054124;28;20132;-83
2023/01/03 10:55:49;;;;;;;58.40;54.72;;;;;;;18.55;100.00;101886.06;5054804;28;20421;-81
2023/01/03 10:58:23;;;;;;;60.08;56.17;;;;;;;17.53;96.24;101883.25;5047473;28;20044;-80
2023/01/03 11:00:51;;;;;;;59.47;55.50;;;;;;;16.35;100.00;101884.03;5048576;28;20049;-82
2023/01/03 11:03:22;;;;;;;60.55;56.75;;;;;;;15.87;100.00;101889.84;5052814;28;20057;-83
2023/01/03 11:06:07;;;;;;;61.28;57.42;;;;;;;17.65;100.00;101875.28;5047565;28;20107;-83
2023/01/03 11:08:43;;;;;;;60.67;56.55;;;;;;;17.77;100.00;101858.19;5046883;28;20111;-83
2023/01/03 11:11:27;;;;;;;60.65;56.85;;;;;;;20.02;85.10;101860.78;5045579;28;20045;-80
2023/01/03 11:14:10;;;;;;;61.13;57.20;;;;;;;17.65;84.96;101865.34;5050163;28;20515;-82
2023/01/03 11:16:37;;;;;;;59.97;55.97;;;;;;;18.03;93.33;101862.41;5052002;28;20458;-83
2023/01/03 11:19:07;;;;;;;62.30;58.08;;;;;;;15.08;100.00;101867.59;5052167;28;20037;-82
2023/01/03 11:21:44;;;;;;;62.38;58.35;;;;;;;16.11;100.00;101861.50;5044323;28;20090;-83
2023/01/03 11:24:24;;;;;;;63.00;58.80;;;;;;;15.72;100.00;101860.66;5048566;28;20049;-83
2023/01/03 11:27:02;;;;;;;64.25;60.00;;;;;;;15.71;100.00;101856.34;5043049;28;20037;-79
2023/01/03 11:30:00;;;;;;;64.10;59.78;;;;;;;17.46;100.00;101852.94;5166032;27;20395;-83
2023/01/03 11:32:46;;;;;;;63.10;58.95;;;;;;;17.07;97.40;101847.78;5171600;27;20047;-82
2023/01/03 11:35:31;;;;;;;66.07;61.78;;;;;;;18.18;89.01;101855.78;5162489;27;20054;-83
2023/01/03 11:38:15;;;;;;;65.22;61.13;;;;;;;16.02;100.00;101845.66;5166928;27;20046;-80
2023/01/03 11:40:48;;;;;;;64.43;60.28;;;;;;;16.40;100.00;101847.50;5163980;27;20114;-80
2023/01/03 11:43:33;;;;;;;64.70;60.70;;;;;;;16.26;100.00;101843.25;5166824;27;20054;-79
2023/01/03 11:46:27;;;;;;;63.63;59.60;;;;;;;18.33;100.00;101841.91;5167541;27;20038;-81
2023/01/03 11:49:22;;;;;;;64.57;60.45;;;;;;;19.06;94.49;101833.44;5157215;27;20053;-79
2023/01/03 11:52:03;;;;;;;64.50;60.40;;;;;;;16.60;90.45;101835.78;5167808;27;20076;-82
2023/01/03 11:55:09;;;;;;;65.22;61.10;;;;;;;17.23;99.46;101842.88;5165977;27;20054;-83
2023/01/03 11:57:43;;;;;;;67.05;62.45;;;;;;;18.07;100.00;101842.06;5169895;27;20050;-83
2023/01/03 12:00:17;;;;;;;69.70;65.45;;;;;;;18.62;95.43;101834.84;5165149;27;20115;-83
2023/01/03 12:03:02;;;;;;;68.13;63.95;;;;;;;16.69;92.03;101843.34;5167532;27;20050;-79
2023/01/03 12:05:44;;;;;;;69.30;64.70;;;;;;;15.99;100.00;101847.97;5155632;27;20043;-79
2023/01/03 12:08:43;;;;;;;66.07;61.70;;;;;;;17.90;94.15;101837.56;5167181;27;20050;-81
2023/01/03 12:11:21;;;;;;;68.15;63.38;;;;;;;18.15;100.00;101837.41;5154776;27;20127;-80
2023/01/03 12:13:57;;;;;;;66.03;61.83;;;;;;;17.22;98.17;101830.50;5168022;27;20461;-81
2023/01/03 12:16:29;;;;;;;70.72;66.30;;;;;;;18.76;94.31;101836.28;5165482;27;20375;-83
2023/01/03 12:19:00;;;;;;;;;;;;;;;20.24;78.58;101838.50;5168601;27;20050;-81
2023/01/03 12:21:34;;;;;;;65.88;61.50;;;;;;;18.68;89.09;101831.22;5164614;27;19923;-79
2023/01/03 12:24:08;;;;;;;66.10;61.72;;;;;;;21.73;67.68;101824.22;5163098;27;20162;-81
2023/01/03 12:26:38;;;;;;;65.75;61.65;;;;;;;20.36;64.00;101825.75;5161728;27;20050;-80
2023/01/03 12:29:19;;;;;;;68.50;63.90;;;;;;;17.89;95.92;101827.88;5169903;27;20050;-81
2023/01/03 12:31:51;;;;;;;65.70;61.63;;;;;;;17.42;92.98;101823.03;5161555;27;20406;-84
2023/01/03 12:34:26;;;;;;;65.70;61.55;;;;;;;21.30;73.53;101819.59;5163861;27;20066;-82